createdAt,value
2018-07-31T00:01:39.537Z,26.21
2018-07-31T00:04:07.739Z,26.18
2018-07-31T00:06:35.948Z,26.22
2018-07-31T00:09:05.608Z,26.19
2018-07-31T00:11:33.821Z,26.15
2018-07-31T00:14:02.116Z,26.14
2018-07-31T00:16:30.347Z,26.13
2018-07-31T00:18:58.556Z,26.13
2018-07-31T00:21:26.804Z,26.11
2018-07-31T00:23:55.078Z,26.09
2018-07-31T00:26:23.276Z,26.08
2018-07-31T00:28:51.516Z,26.08
2018-07-31T00:31:19.728Z,26.10
2018-07-31T00:33:47.936Z,26.10
2018-07-31T00:36:16.192Z,26.10
2018-07-31T00:38:44.424Z,26.06
2018-07-31T00:41:12.663Z,26.08
2018-07-31T00:43:40.881Z,26.06
2018-07-31T00:46:09.092Z,26.06
2018-07-31T00:48:37.308Z,26.07
2018-07-31T00:51:05.576Z,26.07
2018-07-31T00:53:33.808Z,26.02
2018-07-31T00:56:02.065Z,26.05
2018-07-31T00:58:30.288Z,26.04
2018-07-31T01:00:58.516Z,26.02
2018-07-31T01:03:26.726Z,26.02
2018-07-31T01:05:55.188Z,25.98
2018-07-31T01:08:23.459Z,25.84
2018-07-31T01:10:51.652Z,25.93
2018-07-31T01:13:19.956Z,25.90
2018-07-31T01:15:48.169Z,25.92
2018-07-31T01:18:16.397Z,25.87
2018-07-31T01:20:48.031Z,25.92
2018-07-31T01:23:16.305Z,25.97
2018-07-31T01:25:44.536Z,25.97
2018-07-31T01:28:12.787Z,25.96
2018-07-31T01:30:41.033Z,25.93
2018-07-31T01:33:09.287Z,25.90
2018-07-31T01:35:37.528Z,25.86
2018-07-31T01:38:05.776Z,25.82
2018-07-31T01:40:34.047Z,25.78
2018-07-31T01:43:02.250Z,25.75
2018-07-31T01:45:30.469Z,25.76
2018-07-31T01:47:58.700Z,25.77
2018-07-31T01:50:26.918Z,25.74
2018-07-31T01:52:55.186Z,25.69
2018-07-31T01:55:23.420Z,25.68
2018-07-31T01:57:51.656Z,25.67
2018-07-31T02:00:19.932Z,25.63
2018-07-31T02:02:48.208Z,25.62
2018-07-31T02:05:16.431Z,25.51
2018-07-31T02:07:44.648Z,25.54
2018-07-31T02:10:12.880Z,25.52
2018-07-31T02:12:41.168Z,25.51
2018-07-31T02:15:09.465Z,25.48
2018-07-31T02:17:37.657Z,25.47
2018-07-31T02:20:05.904Z,25.42
2018-07-31T02:22:34.129Z,25.41
2018-07-31T02:25:02.343Z,25.40
2018-07-31T02:27:30.552Z,25.39
2018-07-31T02:30:04.161Z,25.36
2018-07-31T02:32:32.387Z,25.33
2018-07-31T02:35:00.626Z,25.33
2018-07-31T02:37:29.225Z,25.35
2018-07-31T02:39:57.448Z,25.37
2018-07-31T02:42:25.744Z,25.39
2018-07-31T02:44:53.982Z,25.38
2018-07-31T02:47:22.193Z,25.35
2018-07-31T02:49:50.468Z,25.31
2018-07-31T02:52:18.680Z,25.32
2018-07-31T02:54:46.899Z,25.35
2018-07-31T02:57:15.109Z,25.31
2018-07-31T02:59:43.339Z,25.26
2018-07-31T03:02:11.589Z,25.24
2018-07-31T03:04:39.823Z,25.23
2018-07-31T03:07:08.054Z,25.22
2018-07-31T03:09:36.265Z,25.20
2018-07-31T03:12:04.499Z,25.13
2018-07-31T03:14:32.760Z,25.15
2018-07-31T03:17:01.005Z,25.11
2018-07-31T03:19:29.305Z,25.09
2018-07-31T03:21:57.525Z,25.06
2018-07-31T03:24:25.742Z,24.95
2018-07-31T03:26:54.005Z,24.95
2018-07-31T03:29:24.699Z,24.96
2018-07-31T03:31:53.804Z,24.94
2018-07-31T03:34:22.032Z,24.85
2018-07-31T03:36:50.328Z,24.88
2018-07-31T03:39:18.544Z,24.86
2018-07-31T03:41:46.772Z,24.87
2018-07-31T03:44:15.009Z,24.85
2018-07-31T03:46:43.228Z,24.81
2018-07-31T03:49:11.492Z,24.79
2018-07-31T03:51:39.717Z,24.78
2018-07-31T03:54:08.029Z,24.79
2018-07-31T03:56:36.246Z,24.77
2018-07-31T03:59:04.882Z,24.75
2018-07-31T04:01:33.177Z,24.72
2018-07-31T04:04:01.496Z,24.69
2018-07-31T04:06:29.712Z,24.68
2018-07-31T04:08:57.944Z,24.67
2018-07-31T04:11:26.177Z,24.66
2018-07-31T04:13:54.400Z,24.62
2018-07-31T04:16:22.625Z,24.59
2018-07-31T04:18:50.845Z,24.57
2018-07-31T04:21:19.072Z,24.53
2018-07-31T04:23:47.296Z,24.51
2018-07-31T04:26:15.533Z,24.50
2018-07-31T04:28:43.752Z,24.52
2018-07-31T04:31:12.016Z,24.56
2018-07-31T04:33:40.244Z,24.57
2018-07-31T04:36:08.522Z,24.56
2018-07-31T04:38:36.720Z,24.53
2018-07-31T04:41:04.951Z,24.50
2018-07-31T04:43:33.140Z,24.34
2018-07-31T04:46:01.410Z,24.16
2018-07-31T04:48:29.648Z,24.07
2018-07-31T04:50:57.863Z,23.98
2018-07-31T04:53:26.105Z,23.89
2018-07-31T04:55:54.320Z,23.81
2018-07-31T04:58:22.583Z,23.76
2018-07-31T05:00:50.848Z,23.73
2018-07-31T05:03:19.144Z,23.69
2018-07-31T05:05:47.410Z,23.65
2018-07-31T05:08:15.624Z,23.63
2018-07-31T05:10:43.854Z,23.62
2018-07-31T05:13:12.116Z,23.62
2018-07-31T05:15:40.357Z,23.62
2018-07-31T05:18:08.650Z,23.63
2018-07-31T05:20:36.864Z,23.68
2018-07-31T05:23:05.088Z,23.70
2018-07-31T05:25:33.305Z,23.68
2018-07-31T05:28:01.548Z,23.67
2018-07-31T05:30:29.784Z,23.66
2018-07-31T05:32:58.117Z,23.64
2018-07-31T05:35:26.340Z,23.66
2018-07-31T05:37:55.800Z,23.66
2018-07-31T05:40:24.060Z,23.65
2018-07-31T05:42:52.283Z,23.67
2018-07-31T05:45:20.520Z,23.67
2018-07-31T05:47:48.749Z,23.69
2018-07-31T05:50:16.956Z,23.71
2018-07-31T05:52:45.161Z,23.77
2018-07-31T05:55:13.445Z,23.83
2018-07-31T05:57:41.721Z,23.87
2018-07-31T06:00:10.011Z,23.88
2018-07-31T06:02:38.204Z,23.95
2018-07-31T06:05:06.485Z,24.05
2018-07-31T06:07:34.724Z,24.13
2018-07-31T06:10:02.954Z,24.22
2018-07-31T06:12:31.172Z,24.31
2018-07-31T06:14:59.392Z,24.39
2018-07-31T06:17:27.621Z,24.36
2018-07-31T06:19:55.836Z,24.37
2018-07-31T06:22:24.113Z,24.40
2018-07-31T06:24:52.372Z,24.48
2018-07-31T06:27:20.608Z,24.51
2018-07-31T06:29:48.866Z,24.59
2018-07-31T06:32:17.094Z,24.61
2018-07-31T06:34:45.309Z,24.63
2018-07-31T06:37:13.541Z,24.70
2018-07-31T06:39:41.808Z,24.76
2018-07-31T06:42:10.306Z,24.80
2018-07-31T06:44:39.117Z,24.85
2018-07-31T06:47:07.453Z,24.88
2018-07-31T06:49:35.747Z,24.92
2018-07-31T06:52:04.004Z,24.96
2018-07-31T06:54:32.244Z,25.00
2018-07-31T06:57:00.484Z,25.04
2018-07-31T06:59:28.741Z,25.08
2018-07-31T07:01:56.979Z,25.10
2018-07-31T07:04:25.177Z,25.14
2018-07-31T07:06:53.433Z,25.20
2018-07-31T07:09:21.750Z,25.24
2018-07-31T07:11:49.920Z,25.28
2018-07-31T07:14:18.125Z,25.31
2018-07-31T07:16:46.373Z,25.35
2018-07-31T07:19:14.584Z,25.35
2018-07-31T07:21:42.852Z,25.38
2018-07-31T07:24:11.088Z,25.44
2018-07-31T07:26:39.317Z,25.49
2018-07-31T07:29:07.533Z,25.53
2018-07-31T07:31:35.792Z,25.53
2018-07-31T07:34:04.022Z,25.51
2018-07-31T07:36:32.289Z,25.53
2018-07-31T07:39:00.538Z,25.57
2018-07-31T07:41:28.756Z,25.60
2018-07-31T07:43:57.043Z,25.62
2018-07-31T07:46:25.306Z,25.67
2018-07-31T07:48:53.532Z,25.72
2018-07-31T07:51:21.765Z,25.76
2018-07-31T07:53:49.993Z,25.78
2018-07-31T07:56:18.228Z,25.81
2018-07-31T07:58:46.492Z,25.85
2018-07-31T08:01:14.704Z,25.92
2018-07-31T08:03:42.939Z,25.96
2018-07-31T08:06:11.168Z,26.02
2018-07-31T08:08:39.396Z,26.09
2018-07-31T08:11:07.768Z,26.13
2018-07-31T08:13:35.972Z,26.17
2018-07-31T08:16:04.804Z,26.20
2018-07-31T08:18:33.026Z,26.22
2018-07-31T08:21:01.277Z,26.22
2018-07-31T08:23:29.504Z,26.20
2018-07-31T08:25:57.724Z,26.21
2018-07-31T08:28:26.009Z,26.22
2018-07-31T08:30:54.276Z,26.25
2018-07-31T08:33:22.533Z,26.28
2018-07-31T08:35:50.772Z,26.31
2018-07-31T08:38:18.993Z,26.33
2018-07-31T08:40:47.236Z,26.36
2018-07-31T08:43:15.461Z,26.40
2018-07-31T08:45:43.689Z,26.44
2018-07-31T08:48:11.940Z,26.43
2018-07-31T08:50:40.176Z,26.51
2018-07-31T08:53:08.464Z,26.56
2018-07-31T08:55:36.730Z,26.64
2018-07-31T08:58:04.925Z,26.68
2018-07-31T09:00:33.131Z,26.73
2018-07-31T09:03:01.383Z,26.76
2018-07-31T09:05:29.640Z,26.78
2018-07-31T09:07:57.860Z,26.77
2018-07-31T09:10:26.080Z,26.79
2018-07-31T09:12:54.304Z,26.82
2018-07-31T09:15:22.543Z,26.86
2018-07-31T09:17:50.812Z,26.84
2018-07-31T09:20:19.052Z,26.93
2018-07-31T09:22:47.276Z,26.91
2018-07-31T09:25:15.500Z,27.02
2018-07-31T09:27:43.765Z,27.08
2018-07-31T09:30:12.140Z,27.12
2018-07-31T09:32:45.778Z,27.19
2018-07-31T09:35:14.013Z,27.29
2018-07-31T09:37:42.292Z,27.42
2018-07-31T09:40:10.536Z,27.55
2018-07-31T09:42:38.791Z,27.65
2018-07-31T09:45:07.008Z,27.75
2018-07-31T09:47:35.265Z,27.83
2018-07-31T09:50:03.556Z,27.86
2018-07-31T09:52:31.769Z,27.89
2018-07-31T09:55:00.045Z,27.95
2018-07-31T09:57:28.724Z,28.01
2018-07-31T09:59:57.020Z,28.07
2018-07-31T10:02:25.290Z,28.11
2018-07-31T10:04:53.524Z,28.19
2018-07-31T10:07:21.722Z,28.24
2018-07-31T10:09:49.936Z,28.27
2018-07-31T10:12:18.169Z,28.30
2018-07-31T10:14:46.452Z,28.38
2018-07-31T10:17:14.732Z,28.47
2018-07-31T10:19:42.963Z,28.50
2018-07-31T10:22:11.213Z,28.54
2018-07-31T10:24:39.428Z,28.56
2018-07-31T10:27:07.688Z,28.56
2018-07-31T10:29:35.961Z,28.58
2018-07-31T10:32:04.484Z,28.60
2018-07-31T10:34:32.708Z,28.69
2018-07-31T10:37:00.896Z,28.82
2018-07-31T10:39:29.128Z,28.90
2018-07-31T10:41:57.464Z,28.97
2018-07-31T10:44:25.741Z,29.14
2018-07-31T10:46:53.944Z,29.37
2018-07-31T10:49:22.240Z,29.61
2018-07-31T10:51:50.460Z,29.82
2018-07-31T10:54:18.764Z,30.09
2018-07-31T10:56:47.008Z,30.34
2018-07-31T10:59:15.212Z,30.53
2018-07-31T11:01:43.457Z,30.69
2018-07-31T11:04:11.698Z,30.91
2018-07-31T11:06:39.957Z,31.12
2018-07-31T11:09:09.804Z,31.30
2018-07-31T11:11:38.056Z,31.45
2018-07-31T11:14:06.953Z,31.64
2018-07-31T11:16:35.320Z,31.85
2018-07-31T11:19:03.536Z,32.01
2018-07-31T11:21:32.019Z,32.14
2018-07-31T11:24:00.264Z,32.25
2018-07-31T11:26:28.576Z,32.25
2018-07-31T11:28:56.808Z,32.21
2018-07-31T11:31:25.232Z,32.06
2018-07-31T11:33:53.461Z,32.00
2018-07-31T11:36:21.744Z,32.08
2018-07-31T11:38:50.004Z,32.20
2018-07-31T11:41:18.212Z,32.20
2018-07-31T11:43:46.428Z,32.11
2018-07-31T11:46:14.672Z,32.12
2018-07-31T11:48:43.017Z,32.23
2018-07-31T11:51:11.227Z,32.34
2018-07-31T11:53:39.468Z,32.42
2018-07-31T11:56:07.785Z,32.61
2018-07-31T11:58:36.041Z,32.72
2018-07-31T12:01:04.372Z,32.78
2018-07-31T12:03:32.629Z,32.90
2018-07-31T12:06:00.849Z,33.00
2018-07-31T12:08:29.124Z,33.09
2018-07-31T12:10:57.400Z,33.14
2018-07-31T12:13:25.696Z,33.20
2018-07-31T12:15:53.962Z,33.25
2018-07-31T12:18:22.164Z,33.05
2018-07-31T12:20:50.408Z,33.06
2018-07-31T12:23:18.572Z,33.10
2018-07-31T12:25:46.857Z,33.16
2018-07-31T12:28:15.805Z,33.12
2018-07-31T12:30:44.012Z,33.06
2018-07-31T12:33:12.239Z,33.12
2018-07-31T12:35:40.697Z,33.24
2018-07-31T12:38:09.041Z,33.32
2018-07-31T12:40:37.257Z,33.35
2018-07-31T12:43:05.512Z,33.40
2018-07-31T12:45:33.767Z,33.56
2018-07-31T12:48:01.995Z,33.46
2018-07-31T12:50:30.197Z,33.39
2018-07-31T12:52:58.533Z,33.15
2018-07-31T12:55:26.785Z,32.91
2018-07-31T12:57:55.048Z,32.80
2018-07-31T13:00:23.281Z,32.60
2018-07-31T13:02:51.500Z,32.42
2018-07-31T13:05:19.831Z,32.22
2018-07-31T13:07:48.043Z,32.01
2018-07-31T13:10:16.287Z,31.88
2018-07-31T13:12:44.541Z,31.87
2018-07-31T13:15:12.768Z,32.05
2018-07-31T13:17:41.024Z,32.27
2018-07-31T13:20:09.300Z,32.41
2018-07-31T13:22:37.605Z,32.66
2018-07-31T13:25:05.952Z,32.80
2018-07-31T13:27:34.216Z,32.87
2018-07-31T13:30:02.481Z,32.82
2018-07-31T13:32:30.720Z,32.79
2018-07-31T13:34:58.974Z,32.75
2018-07-31T13:37:27.196Z,32.69
2018-07-31T13:39:55.412Z,32.64
2018-07-31T13:42:23.648Z,32.51
2018-07-31T13:44:51.900Z,32.35
2018-07-31T13:47:20.155Z,32.36
2018-07-31T13:49:48.381Z,32.42
2018-07-31T13:52:16.601Z,32.63
2018-07-31T13:54:44.819Z,32.92
2018-07-31T13:57:13.064Z,33.13
2018-07-31T13:59:41.324Z,33.37
2018-07-31T14:02:09.630Z,33.64
2018-07-31T14:04:37.916Z,33.85
2018-07-31T14:07:06.193Z,33.98
2018-07-31T14:09:34.388Z,34.05
2018-07-31T14:12:02.597Z,34.00
2018-07-31T14:14:30.970Z,33.79
2018-07-31T14:16:59.189Z,33.72
2018-07-31T14:19:27.434Z,33.73
2018-07-31T14:21:55.652Z,33.76
2018-07-31T14:24:23.940Z,33.90
2018-07-31T14:26:52.140Z,33.94
2018-07-31T14:29:20.589Z,34.01
2018-07-31T14:31:48.824Z,34.04
2018-07-31T14:34:17.048Z,34.04
2018-07-31T14:36:45.293Z,34.09
2018-07-31T14:39:13.532Z,34.14
2018-07-31T14:41:41.840Z,34.17
2018-07-31T14:44:10.145Z,34.10
2018-07-31T14:46:38.376Z,34.04
2018-07-31T14:49:06.636Z,33.96
2018-07-31T14:51:34.864Z,33.85
2018-07-31T14:54:03.121Z,33.78
2018-07-31T14:56:31.310Z,33.74
2018-07-31T14:58:59.582Z,33.73
2018-07-31T15:01:27.800Z,33.72
2018-07-31T15:03:56.025Z,33.72
2018-07-31T15:06:24.221Z,33.73
2018-07-31T15:08:52.417Z,33.78
2018-07-31T15:11:20.775Z,33.87
2018-07-31T15:13:48.984Z,33.93
2018-07-31T15:16:17.184Z,33.98
2018-07-31T15:18:45.392Z,34.03
2018-07-31T15:21:13.691Z,34.11
2018-07-31T15:23:41.898Z,34.18
2018-07-31T15:26:10.136Z,34.42
2018-07-31T15:28:38.353Z,34.69
2018-07-31T15:31:06.576Z,35.13
2018-07-31T15:33:35.069Z,35.30
2018-07-31T15:36:03.316Z,35.09
2018-07-31T15:38:31.568Z,34.64
2018-07-31T15:40:59.796Z,34.22
2018-07-31T15:43:28.028Z,33.80
2018-07-31T15:45:56.241Z,33.61
2018-07-31T15:48:24.500Z,33.45
2018-07-31T15:50:52.708Z,33.12
2018-07-31T15:53:20.929Z,32.86
2018-07-31T15:55:49.154Z,32.65
2018-07-31T15:58:17.374Z,32.48
2018-07-31T16:00:45.656Z,32.36
2018-07-31T16:03:13.952Z,32.26
2018-07-31T16:05:42.194Z,32.14
2018-07-31T16:08:10.424Z,32.02
2018-07-31T16:10:38.749Z,31.95
2018-07-31T16:13:07.056Z,31.87
2018-07-31T16:15:35.317Z,31.79
2018-07-31T16:18:03.549Z,31.75
2018-07-31T16:20:31.832Z,31.81
2018-07-31T16:23:00.143Z,32.00
2018-07-31T16:25:28.306Z,31.98
2018-07-31T16:27:56.572Z,32.00
2018-07-31T16:30:24.800Z,32.30
2018-07-31T16:32:53.044Z,32.37
2018-07-31T16:35:21.348Z,32.18
2018-07-31T16:37:49.605Z,31.90
2018-07-31T16:40:17.812Z,31.79
2018-07-31T16:42:46.057Z,31.91
2018-07-31T16:45:14.281Z,32.02
2018-07-31T16:47:42.556Z,31.92
2018-07-31T16:50:10.809Z,31.80
2018-07-31T16:52:39.028Z,31.67
2018-07-31T16:55:07.338Z,31.52
2018-07-31T16:57:35.561Z,31.40
2018-07-31T17:00:03.872Z,31.74
2018-07-31T17:02:32.084Z,32.37
2018-07-31T17:05:00.332Z,32.84
2018-07-31T17:07:28.593Z,33.17
2018-07-31T17:09:56.820Z,33.30
2018-07-31T17:12:25.088Z,33.28
2018-07-31T17:14:53.404Z,33.20
2018-07-31T17:17:21.639Z,33.05
2018-07-31T17:19:49.836Z,33.03
2018-07-31T17:22:18.237Z,32.93
2018-07-31T17:24:46.444Z,32.98
2018-07-31T17:27:14.656Z,33.00
2018-07-31T17:29:43.152Z,32.76
2018-07-31T17:32:11.372Z,32.48
2018-07-31T17:34:39.600Z,32.22
2018-07-31T17:37:07.894Z,31.93
2018-07-31T17:39:36.109Z,31.73
2018-07-31T17:42:04.412Z,31.55
2018-07-31T17:44:32.748Z,31.41
2018-07-31T17:47:00.908Z,31.24
2018-07-31T17:49:29.122Z,31.08
2018-07-31T17:51:57.341Z,30.96
2018-07-31T17:54:25.564Z,30.85
2018-07-31T17:56:53.816Z,30.75
2018-07-31T17:59:22.064Z,30.67
2018-07-31T18:01:50.292Z,30.62
2018-07-31T18:04:18.528Z,30.55
2018-07-31T18:06:46.748Z,30.51
2018-07-31T18:09:15.005Z,30.44
2018-07-31T18:11:43.226Z,30.40
2018-07-31T18:14:11.604Z,30.36
2018-07-31T18:16:39.721Z,30.32
2018-07-31T18:19:08.312Z,30.28
2018-07-31T18:21:36.537Z,30.23
2018-07-31T18:24:05.484Z,30.20
2018-07-31T18:26:33.713Z,30.13
2018-07-31T18:29:01.977Z,30.06
2018-07-31T18:31:30.216Z,30.01
2018-07-31T18:33:58.548Z,29.99
2018-07-31T18:36:26.824Z,29.93
2018-07-31T18:38:55.040Z,29.95
2018-07-31T18:41:23.345Z,29.95
2018-07-31T18:43:51.490Z,29.93
2018-07-31T18:46:19.738Z,29.92
2018-07-31T18:48:47.969Z,29.93
2018-07-31T18:51:16.201Z,29.92
2018-07-31T18:53:44.420Z,29.88
2018-07-31T18:56:13.152Z,29.84
2018-07-31T18:58:41.399Z,29.78
2018-07-31T19:01:09.733Z,29.73
2018-07-31T19:03:38.037Z,29.69
2018-07-31T19:06:06.569Z,29.64
2018-07-31T19:08:34.776Z,29.61
2018-07-31T19:11:02.984Z,29.58
2018-07-31T19:13:31.217Z,29.51
2018-07-31T19:15:59.436Z,29.48
2018-07-31T19:18:27.712Z,29.47
2018-07-31T19:20:55.924Z,29.46
2018-07-31T19:23:24.219Z,29.43
2018-07-31T19:25:52.473Z,29.41
2018-07-31T19:28:20.856Z,29.38
2018-07-31T19:30:48.948Z,29.33
2018-07-31T19:33:17.186Z,29.26
2018-07-31T19:35:45.432Z,29.20
2018-07-31T19:38:13.656Z,29.15
2018-07-31T19:40:41.901Z,29.08
2018-07-31T19:43:10.122Z,29.04
2018-07-31T19:45:38.360Z,28.99
2018-07-31T19:48:06.593Z,28.96
2018-07-31T19:50:34.940Z,28.98
2018-07-31T19:53:03.177Z,28.97
2018-07-31T19:55:31.461Z,28.94
2018-07-31T19:57:59.676Z,28.91
2018-07-31T20:00:27.998Z,28.88
2018-07-31T20:02:56.250Z,28.86
2018-07-31T20:05:24.468Z,28.84
2018-07-31T20:07:52.708Z,28.82
2018-07-31T20:10:20.952Z,28.77
2018-07-31T20:12:49.191Z,28.72
2018-07-31T20:15:17.508Z,28.68
2018-07-31T20:17:45.837Z,28.66
2018-07-31T20:20:14.056Z,28.62
2018-07-31T20:22:42.284Z,28.59
2018-07-31T20:25:10.616Z,28.59
2018-07-31T20:27:38.825Z,28.54
2018-07-31T20:30:07.472Z,28.51
2018-07-31T20:32:35.697Z,28.47
2018-07-31T20:35:03.960Z,28.45
2018-07-31T20:37:32.241Z,28.43
2018-07-31T20:40:00.552Z,28.43
2018-07-31T20:42:28.804Z,28.41
2018-07-31T20:44:57.040Z,28.39
2018-07-31T20:47:25.304Z,28.37
2018-07-31T20:49:53.608Z,28.36
2018-07-31T20:52:21.949Z,28.33
2018-07-31T20:54:50.125Z,28.27
2018-07-31T20:57:18.896Z,28.26
2018-07-31T20:59:47.170Z,28.23
2018-07-31T21:02:15.392Z,28.18
2018-07-31T21:04:43.636Z,28.17
2018-07-31T21:07:11.966Z,28.15
2018-07-31T21:09:40.265Z,28.13
2018-07-31T21:12:08.476Z,28.09
2018-07-31T21:14:36.704Z,28.06
2018-07-31T21:17:04.940Z,28.02
2018-07-31T21:19:33.221Z,27.98
2018-07-31T21:22:01.477Z,27.97
2018-07-31T21:24:29.818Z,27.95
2018-07-31T21:26:58.095Z,27.94
2018-07-31T21:29:26.357Z,27.95
2018-07-31T21:31:54.545Z,27.91
2018-07-31T21:34:22.748Z,27.87
2018-07-31T21:36:51.028Z,27.85
2018-07-31T21:39:19.355Z,27.83
2018-07-31T21:41:47.496Z,27.80
2018-07-31T21:44:15.789Z,27.76
2018-07-31T21:46:44.041Z,27.74
2018-07-31T21:49:12.300Z,27.72
2018-07-31T21:51:40.624Z,27.68
2018-07-31T21:54:08.842Z,27.66
2018-07-31T21:56:37.411Z,27.60
2018-07-31T21:59:05.631Z,27.63
2018-07-31T22:01:33.888Z,27.60
2018-07-31T22:04:02.193Z,27.58
2018-07-31T22:06:30.437Z,27.58
2018-07-31T22:08:58.698Z,27.54
2018-07-31T22:11:27.335Z,27.53
2018-07-31T22:13:55.562Z,27.51
2018-07-31T22:16:23.766Z,27.48
2018-07-31T22:18:52.216Z,27.44
2018-07-31T22:21:20.498Z,27.40
2018-07-31T22:23:48.760Z,27.35
2018-07-31T22:26:16.984Z,27.33
2018-07-31T22:28:45.256Z,27.26
2018-07-31T22:31:13.446Z,27.19
2018-07-31T22:33:41.984Z,27.16
2018-07-31T22:36:10.223Z,27.09
2018-07-31T22:38:38.560Z,27.03
2018-07-31T22:41:06.908Z,26.97
2018-07-31T22:43:35.220Z,26.88
2018-07-31T22:46:03.404Z,26.90
2018-07-31T22:48:31.641Z,26.87
2018-07-31T22:50:59.871Z,26.87
2018-07-31T22:53:28.129Z,26.85
2018-07-31T22:55:56.344Z,26.83
2018-07-31T22:58:24.700Z,26.82
2018-07-31T23:00:52.908Z,26.81
2018-07-31T23:03:21.158Z,26.76
2018-07-31T23:05:49.460Z,26.77
2018-07-31T23:08:17.676Z,26.72
2018-07-31T23:10:45.891Z,26.66
2018-07-31T23:13:14.100Z,26.59
2018-07-31T23:15:42.336Z,26.57
2018-07-31T23:18:10.575Z,26.58
2018-07-31T23:20:38.795Z,26.55
2018-07-31T23:23:07.004Z,26.53
2018-07-31T23:25:35.228Z,26.49
2018-07-31T23:28:03.472Z,26.47
2018-07-31T23:30:31.697Z,26.43
2018-07-31T23:32:59.988Z,26.40
2018-07-31T23:35:28.311Z,26.38
2018-07-31T23:37:56.546Z,26.33
2018-07-31T23:40:24.764Z,26.27
2018-07-31T23:42:52.983Z,26.25
2018-07-31T23:45:21.292Z,26.26
2018-07-31T23:47:49.652Z,26.26
2018-07-31T23:50:17.872Z,26.26
2018-07-31T23:52:46.165Z,26.31
2018-07-31T23:55:14.484Z,26.31
2018-07-31T23:57:42.730Z,26.33
